Time;durP1;ratioP1;P1;durP2;ratioP2;P2;SDS_P1;SDS_P2;PMS_P1;PMS_P2;Temp;Humidity;BMP_temperature;BMP_pressure;BME280_temperature;BME280_humidity;BME280_pressure;Samples;Min_cycle;Max_cycle;Signal;HPM_P1;HPM_P2
2023/06/04 04:02:58;;;;;;;;;4.00;4.00;;;;;;;;6362262;22;45374;-72
2023/06/04 04:05:23;;;;;;;;;3.00;3.00;;;;;;;;6402095;22;45249;-73
2023/06/04 04:07:48;;;;;;;;;3.33;3.00;;;;;;;;6403122;22;46335;-74
2023/06/04 04:10:13;;;;;;;;;4.67;3.00;;;;;;;;6404604;22;45213;-73
2023/06/04 04:12:38;;;;;;;;;2.67;2.67;;;;;;;;6404050;22;45228;-73
2023/06/04 04:15:04;;;;;;;;;4.00;4.00;;;;;;;;6404124;22;45466;-73
2023/06/04 04:17:29;;;;;;;;;4.00;4.00;;;;;;;;6402783;22;46238;-73
2023/06/04 04:19:55;;;;;;;;;4.33;4.00;;;;;;;;6404484;22;45186;-73
2023/06/04 04:22:20;;;;;;;;;3.33;2.67;;;;;;;;6404385;22;45246;-73
2023/06/04 04:24:45;;;;;;;;;5.00;3.00;;;;;;;;6375725;22;45415;-73
2023/06/04 04:27:11;;;;;;;;;4.00;3.33;;;;;;;;6404149;22;46002;-73
2023/06/04 04:29:36;;;;;;;;;3.00;3.00;;;;;;;;6403875;22;45155;-73
2023/06/04 04:32:11;;;;;;;;;4.00;3.00;;;;;;;;6403562;22;45267;-73
2023/06/04 04:34:38;;;;;;;;;4.00;4.00;;;;;;;;6404557;22;45230;-73
2023/06/04 04:37:04;;;;;;;;;3.00;3.00;;;;;;;;6403532;22;45378;-73
2023/06/04 04:39:29;;;;;;;;;3.00;3.00;;;;;;;;6404371;22;45335;-73
2023/06/04 04:41:55;;;;;;;;;5.00;2.67;;;;;;;;6404285;22;45767;-73
2023/06/04 04:44:20;;;;;;;;;2.33;2.33;;;;;;;;6404504;22;45221;-73
2023/06/04 04:46:45;;;;;;;;;3.00;3.00;;;;;;;;6403687;22;45196;-73
2023/06/04 04:49:11;;;;;;;;;4.00;3.00;;;;;;;;6404369;22;45302;-73
2023/06/04 04:51:36;;;;;;;;;5.67;4.00;;;;;;;;6404130;22;45366;-73
2023/06/04 04:54:01;;;;;;;;;4.00;3.00;;;;;;;;6404312;22;45246;-72
2023/06/04 04:56:27;;;;;;;;;4.00;4.00;;;;;;;;6375166;22;46172;-72
2023/06/04 04:58:52;;;;;;;;;2.00;1.00;;;;;;;;6404351;22;45300;-72
2023/06/04 05:01:17;;;;;;;;;4.00;4.00;;;;;;;;6404090;22;45273;-72
2023/06/04 05:03:43;;;;;;;;;2.00;2.00;;;;;;;;6403482;22;45248;-72
2023/06/04 05:06:08;;;;;;;;;4.00;3.67;;;;;;;;6403565;22;46131;-72
2023/06/04 05:08:33;;;;;;;;;3.00;3.00;;;;;;;;6376317;22;45211;-72
2023/06/04 05:10:59;;;;;;;;;5.00;4.00;;;;;;;;6404226;22;45400;-72
2023/06/04 05:13:24;;;;;;;;;5.33;3.00;;;;;;;;6373900;22;45746;-73
2023/06/04 05:15:52;;;;;;;;;6.00;2.67;;;;;;;;6404083;22;45242;-72
2023/06/04 05:18:20;;;;;;;;;4.00;4.00;;;;;;;;6403466;22;45241;-72
2023/06/04 05:20:45;;;;;;;;;6.00;4.00;;;;;;;;6404163;22;45297;-73
2023/06/04 05:23:12;;;;;;;;;3.00;3.00;;;;;;;;6403797;22;45230;-73
2023/06/04 05:25:37;;;;;;;;;2.33;2.33;;;;;;;;6403779;22;45964;-73
2023/06/04 05:28:03;;;;;;;;;5.33;4.33;;;;;;;;6374368;22;45594;-72
2023/06/04 05:30:28;;;;;;;;;2.67;2.67;;;;;;;;6403731;22;45261;-73
2023/06/04 05:32:53;;;;;;;;;3.33;3.33;;;;;;;;6403193;22;45550;-74
2023/06/04 05:35:18;;;;;;;;;2.00;2.00;;;;;;;;6403702;22;45287;-73
2023/06/04 05:37:45;;;;;;;;;3.00;3.00;;;;;;;;6403630;22;45372;-74
2023/06/04 05:40:11;;;;;;;;;5.33;3.33;;;;;;;;6404185;22;45285;-73
2023/06/04 05:42:36;;;;;;;;;4.00;2.00;;;;;;;;6403323;22;45272;-73
2023/06/04 05:45:01;;;;;;;;;2.00;2.00;;;;;;;;6403760;22;46062;-73
2023/06/04 05:47:28;;;;;;;;;2.00;2.00;;;;;;;;6403187;22;45127;-71
2023/06/04 05:49:53;;;;;;;;;3.67;3.67;;;;;;;;6404087;22;45103;-73
2023/06/04 05:52:19;;;;;;;;;5.00;4.00;;;;;;;;6403566;22;45261;-72
2023/06/04 05:54:44;;;;;;;;;3.33;3.00;;;;;;;;6374901;22;45993;-73
2023/06/04 05:57:10;;;;;;;;;4.00;3.00;;;;;;;;6403607;22;45289;-72
2023/06/04 05:59:35;;;;;;;;;3.00;3.00;;;;;;;;6403282;22;45194;-73
2023/06/04 06:02:00;;;;;;;;;5.00;4.00;;;;;;;;6402902;22;45176;-71
2023/06/04 06:04:26;;;;;;;;;2.00;2.00;;;;;;;;6403734;22;46071;-70
2023/06/04 06:06:51;;;;;;;;;3.00;3.00;;;;;;;;6374597;22;45522;-71
2023/06/04 06:09:16;;;;;;;;;2.00;2.00;;;;;;;;6371942;22;45824;-71
2023/06/04 06:11:42;;;;;;;;;3.67;3.00;;;;;;;;6402351;22;45445;-72
2023/06/04 06:14:07;;;;;;;;;3.00;3.00;;;;;;;;6403014;22;45632;-71
2023/06/04 06:16:32;;;;;;;;;3.67;3.67;;;;;;;;6402063;22;45328;-72
2023/06/04 06:18:58;;;;;;;;;4.00;3.00;;;;;;;;6403873;22;45513;-72
2023/06/04 06:21:23;;;;;;;;;4.67;3.33;;;;;;;;6402813;22;45512;-71
2023/06/04 06:23:48;;;;;;;;;2.67;2.67;;;;;;;;6402728;22;45272;-71
2023/06/04 06:26:13;;;;;;;;;2.33;2.33;;;;;;;;6402564;22;45312;-72
2023/06/04 06:28:39;;;;;;;;;3.33;3.33;;;;;;;;6402859;22;45720;-71
2023/06/04 06:31:04;;;;;;;;;3.33;3.33;;;;;;;;6402314;22;45390;-71
2023/06/04 06:33:31;;;;;;;;;3.00;2.33;;;;;;;;6402254;22;45275;-73
2023/06/04 06:35:56;;;;;;;;;2.67;1.67;;;;;;;;6402512;22;45226;-73
2023/06/04 06:38:21;;;;;;;;;3.00;3.00;;;;;;;;6403029;22;45176;-73
2023/06/04 06:40:47;;;;;;;;;4.00;2.67;;;;;;;;6402515;22;45378;-73
2023/06/04 06:43:12;;;;;;;;;2.67;2.00;;;;;;;;6402460;22;45578;-72
2023/06/04 06:45:37;;;;;;;;;2.00;2.00;;;;;;;;6402667;22;45413;-73
2023/06/04 06:48:03;;;;;;;;;2.33;2.33;;;;;;;;6402286;22;45214;-73
2023/06/04 06:50:29;;;;;;;;;4.00;1.67;;;;;;;;6402790;22;45186;-72
2023/06/04 06:52:54;;;;;;;;;3.67;3.67;;;;;;;;6374339;22;47644;-72
2023/06/04 06:55:19;;;;;;;;;3.33;2.33;;;;;;;;6403899;22;45202;-71
2023/06/04 06:57:45;;;;;;;;;3.67;2.67;;;;;;;;6404231;22;45361;-71
2023/06/04 07:00:11;;;;;;;;;2.00;2.00;;;;;;;;6404078;22;45135;-71
2023/06/04 07:02:36;;;;;;;;;2.33;2.33;;;;;;;;6403204;22;45171;-71
2023/06/04 07:05:02;;;;;;;;;4.33;2.67;;;;;;;;6404256;22;45303;-71
2023/06/04 07:07:28;;;;;;;;;2.00;2.00;;;;;;;;6345856;22;45207;-71
2023/06/04 07:09:53;;;;;;;;;2.00;2.00;;;;;;;;6403984;22;45255;-70
2023/06/04 07:12:18;;;;;;;;;2.00;2.00;;;;;;;;6403967;22;45402;-71
2023/06/04 07:14:43;;;;;;;;;2.00;2.00;;;;;;;;6403930;22;45286;-71
2023/06/04 07:17:08;;;;;;;;;4.33;2.67;;;;;;;;6403353;22;45257;-70
2023/06/04 07:19:33;;;;;;;;;1.33;1.33;;;;;;;;6403934;22;45300;-71
2023/06/04 07:22:00;;;;;;;;;2.00;2.00;;;;;;;;6403134;22;46260;-70
2023/06/04 07:24:25;;;;;;;;;2.33;2.33;;;;;;;;6404081;22;45210;-70
2023/06/04 07:26:50;;;;;;;;;2.00;2.00;;;;;;;;6403793;22;45337;-70
2023/06/04 07:29:16;;;;;;;;;2.00;1.00;;;;;;;;6403867;22;45273;-70
2023/06/04 07:31:41;;;;;;;;;3.00;1.00;;;;;;;;6402998;22;45226;-70
2023/06/04 07:34:06;;;;;;;;;4.67;3.00;;;;;;;;6403654;22;45227;-70
2023/06/04 07:36:32;;;;;;;;;4.00;3.00;;;;;;;;6403806;22;45197;-70
2023/06/04 07:38:57;;;;;;;;;1.00;1.00;;;;;;;;6403850;22;45348;-70
2023/06/04 07:41:23;;;;;;;;;2.33;2.33;;;;;;;;6403616;22;45606;-71
2023/06/04 07:43:48;;;;;;;;;4.67;3.33;;;;;;;;6374910;22;45258;-71
2023/06/04 07:46:13;;;;;;;;;2.00;2.00;;;;;;;;6403225;22;45471;-71
2023/06/04 07:48:38;;;;;;;;;3.33;2.67;;;;;;;;6403256;22;45168;-71
2023/06/04 07:51:04;;;;;;;;;3.67;2.00;;;;;;;;6373878;22;46973;-70
2023/06/04 07:53:29;;;;;;;;;5.00;2.00;;;;;;;;6402708;22;45427;-71
2023/06/04 07:55:55;;;;;;;;;2.33;2.33;;;;;;;;6373860;22;45121;-70
2023/06/04 07:58:20;;;;;;;;;2.00;2.00;;;;;;;;6373869;22;45705;-71
2023/06/04 08:00:45;;;;;;;;;1.75;1.50;;;;;;;;6403219;22;45410;-71
2023/06/04 08:03:11;;;;;;;;;2.00;2.00;;;;;;;;6402866;22;45375;-71
2023/06/04 08:05:37;;;;;;;;;3.75;2.50;;;;;;;;6404784;22;45250;-71
2023/06/04 08:08:03;;;;;;;;;3.00;2.50;;;;;;;;6404143;22;45257;-71
2023/06/04 08:10:28;;;;;;;;;2.00;2.00;;;;;;;;6404555;22;46099;-71
2023/06/04 08:12:53;;;;;;;;;2.75;2.75;;;;;;;;6374731;22;45424;-71
2023/06/04 08:15:19;;;;;;;;;4.00;2.00;;;;;;;;6404608;22;45461;-71
2023/06/04 08:17:44;;;;;;;;;3.25;3.25;;;;;;;;6401902;22;45395;-71
2023/06/04 08:20:09;;;;;;;;;2.50;2.50;;;;;;;;6402718;22;46377;-71
2023/06/04 08:22:35;;;;;;;;;2.25;2.25;;;;;;;;6402918;22;45271;-71
2023/06/04 08:25:00;;;;;;;;;2.25;2.25;;;;;;;;6400705;22;45279;-70
2023/06/04 08:27:26;;;;;;;;;3.00;3.00;;;;;;;;6402748;22;45689;-70
2023/06/04 08:29:52;;;;;;;;;2.00;2.00;;;;;;;;6403601;22;45201;-70
2023/06/04 08:32:17;;;;;;;;;3.25;0.75;;;;;;;;6402342;22;45205;-73
2023/06/04 08:34:42;;;;;;;;;2.50;2.50;;;;;;;;6403847;22;45439;-71
2023/06/04 08:37:08;;;;;;;;;3.00;3.00;;;;;;;;6402447;22;45394;-72
2023/06/04 08:39:33;;;;;;;;;1.75;1.75;;;;;;;;6374328;22;47939;-72
2023/06/04 08:42:04;;;;;;;;;1.25;1.25;;;;;;;;6403206;22;45276;-70
2023/06/04 08:44:29;;;;;;;;;2.00;2.00;;;;;;;;6403360;22;45229;-71
2023/06/04 08:46:57;;;;;;;;;4.25;2.75;;;;;;;;6402522;22;45335;-71
2023/06/04 08:49:24;;;;;;;;;2.25;2.25;;;;;;;;6403473;22;45094;-71
2023/06/04 08:51:50;;;;;;;;;2.20;2.20;;;;;;;;6403708;22;45154;-70
2023/06/04 08:54:16;;;;;;;;;1.60;1.60;;;;;;;;6404412;22;45170;-70
2023/06/04 08:56:42;;;;;;;;;1.75;1.75;;;;;;;;6404052;22;45417;-72
2023/06/04 08:59:07;;;;;;;;;0.20;0.20;;;;;;;;6404290;22;46198;-71
2023/06/04 09:01:33;;;;;;;;;2.50;2.25;;;;;;;;6403914;22;45193;-74
2023/06/04 09:04:00;;;;;;;;;3.40;3.00;;;;;;;;6404074;22;45238;-71
2023/06/04 09:06:26;;;;;;;;;0.75;0.75;;;;;;;;6403650;22;45427;-70
2023/06/04 09:08:52;;;;;;;;;2.75;2.75;;;;;;;;6404073;22;45290;-70
2023/06/04 09:11:18;;;;;;;;;2.60;2.60;;;;;;;;6403928;22;45237;-70
2023/06/04 09:13:46;;;;;;;;;2.00;2.00;;;;;;;;6404585;22;45147;-73
2023/06/04 09:16:11;;;;;;;;;3.80;2.40;;;;;;;;6403104;22;45174;-72
2023/06/04 09:18:36;;;;;;;;;3.25;2.00;;;;;;;;6404116;22;46444;-69
2023/06/04 09:21:02;;;;;;;;;2.00;2.00;;;;;;;;6404209;22;45294;-70
2023/06/04 09:23:27;;;;;;;;;13.00;11.25;;;;;;;;6404641;22;45206;-70
2023/06/04 09:25:53;;;;;;;;;3.50;3.50;;;;;;;;6404307;22;45300;-70
2023/06/04 09:28:19;;;;;;;;;2.25;2.25;;;;;;;;6403936;22;45417;-69
2023/06/04 09:30:54;;;;;;;;;3.20;3.20;;;;;;;;6375464;22;45267;-70
2023/06/04 09:33:20;;;;;;;;;2.20;2.20;;;;;;;;6402846;22;45218;-70
2023/06/04 09:35:58;;;;;;;;;1.60;1.60;;;;;;;;6403913;22;45258;-75
2023/06/04 09:38:31;;;;;;;;;3.80;3.80;;;;;;;;6403983;22;46048;-72
2023/06/04 09:40:56;;;;;;;;;2.80;2.20;;;;;;;;6404296;22;45221;-72
2023/06/04 09:43:23;;;;;;;;;3.50;3.50;;;;;;;;6402609;22;45316;-71
2023/06/04 09:45:48;;;;;;;;;5.00;2.80;;;;;;;;6401713;22;45359;-70
2023/06/04 09:48:22;;;;;;;;;3.50;3.50;;;;;;;;6401938;22;45407;-71
2023/06/04 09:50:48;;;;;;;;;3.40;3.40;;;;;;;;6403302;22;45281;-72
2023/06/04 09:53:18;;;;;;;;;2.50;2.00;;;;;;;;6402503;22;45196;-71
2023/06/04 09:55:43;;;;;;;;;5.00;4.20;;;;;;;;6403546;22;45402;-74
2023/06/04 09:58:10;;;;;;;;;6.00;3.25;;;;;;;;6403631;22;46162;-71
2023/06/04 10:00:35;;;;;;;;;6.60;5.00;;;;;;;;6403803;22;45265;-69
2023/06/04 10:03:02;;;;;;;;;1.50;1.50;;;;;;;;6403023;22;45272;-69
2023/06/04 10:05:30;;;;;;;;;3.40;3.20;;;;;;;;6374984;22;45290;-72
2023/06/04 10:07:57;;;;;;;;;2.80;2.40;;;;;;;;6403367;22;46258;-71
2023/06/04 10:10:24;;;;;;;;;3.40;3.40;;;;;;;;6404073;22;45338;-71
2023/06/04 10:12:54;;;;;;;;;2.20;2.20;;;;;;;;6403351;22;45254;-72
2023/06/04 10:15:20;;;;;;;;;3.00;3.00;;;;;;;;6403767;22;45280;-72
2023/06/04 10:17:47;;;;;;;;;2.50;2.50;;;;;;;;6401203;22;45336;-72
2023/06/04 10:20:12;;;;;;;;;2.20;2.20;;;;;;;;6403827;22;45394;-72
2023/06/04 10:22:37;;;;;;;;;2.00;2.00;;;;;;;;6403556;22;45281;-72
2023/06/04 10:25:03;;;;;;;;;2.00;2.00;;;;;;;;6403707;22;45269;-72
2023/06/04 10:27:30;;;;;;;;;3.00;2.00;;;;;;;;6404246;22;45856;-72
2023/06/04 10:29:55;;;;;;;;;3.00;1.80;;;;;;;;6405082;22;45254;-72
2023/06/04 10:32:21;;;;;;;;;2.00;1.25;;;;;;;;6404052;22;45307;-72
2023/06/04 10:34:46;;;;;;;;;3.00;1.25;;;;;;;;6404876;22;45336;-72
2023/06/04 10:37:25;;;;;;;;;1.75;1.75;;;;;;;;6404392;22;45750;-72
2023/06/04 10:39:56;;;;;;;;;28.75;25.50;;;;;;;;6404503;22;45167;-73
2023/06/04 10:42:22;;;;;;;;;4.20;4.20;;;;;;;;6404452;22;45223;-72
2023/06/04 10:44:49;;;;;;;;;2.00;2.00;;;;;;;;6405368;22;45144;-72
2023/06/04 10:47:21;;;;;;;;;3.20;3.20;;;;;;;;6404088;22;45177;-72
2023/06/04 10:49:47;;;;;;;;;11.20;9.60;;;;;;;;6405219;22;45296;-72
2023/06/04 10:52:12;;;;;;;;;3.00;3.00;;;;;;;;6404926;22;45543;-73
2023/06/04 10:54:37;;;;;;;;;9.75;7.50;;;;;;;;6405115;22;45198;-71
2023/06/04 10:57:16;;;;;;;;;4.75;3.75;;;;;;;;6404181;22;45992;-70
2023/06/04 10:59:41;;;;;;;;;10.60;9.20;;;;;;;;6376378;22;45155;-71
2023/06/04 11:02:07;;;;;;;;;3.00;3.00;;;;;;;;6403979;22;45218;-73
2023/06/04 11:04:33;;;;;;;;;4.00;4.00;;;;;;;;6404580;22;45235;-72
2023/06/04 11:07:08;;;;;;;;;2.50;2.50;;;;;;;;6404285;22;45359;-73
2023/06/04 11:09:34;;;;;;;;;4.60;4.60;;;;;;;;6375691;22;45888;-72
2023/06/04 11:11:59;;;;;;;;;10.00;7.50;;;;;;;;6404028;22;45359;-71
2023/06/04 11:14:24;;;;;;;;;4.00;4.00;;;;;;;;6404170;22;45298;-71
2023/06/04 11:16:50;;;;;;;;;6.25;6.25;;;;;;;;6403786;22;45315;-70
2023/06/04 11:19:15;;;;;;;;;7.25;6.75;;;;;;;;6404346;22;45233;-71
2023/06/04 11:21:40;;;;;;;;;1.50;1.50;;;;;;;;6404307;22;45207;-71
2023/06/04 11:24:06;;;;;;;;;11.50;9.50;;;;;;;;6402199;22;45288;-71
2023/06/04 11:26:35;;;;;;;;;8.50;7.50;;;;;;;;6403989;22;45920;-71
2023/06/04 11:29:00;;;;;;;;;3.80;3.80;;;;;;;;6404386;22;45245;-70
2023/06/04 11:31:26;;;;;;;;;16.00;13.00;;;;;;;;6403959;22;45162;-70
2023/06/04 11:33:51;;;;;;;;;6.00;4.00;;;;;;;;6404226;22;45335;-71
2023/06/04 11:36:22;;;;;;;;;6.25;5.50;;;;;;;;6404154;22;45207;-72
2023/06/04 11:39:01;;;;;;;;;27.75;26.50;;;;;;;;6404574;22;45076;-71
2023/06/04 11:41:30;;;;;;;;;22.50;21.00;;;;;;;;6404017;22;45210;-71
2023/06/04 11:43:55;;;;;;;;;6.00;6.00;;;;;;;;6374748;22;45738;-71
2023/06/04 11:46:20;;;;;;;;;22.75;19.25;;;;;;;;6403990;22;45335;-70
2023/06/04 11:48:46;;;;;;;;;4.75;4.75;;;;;;;;6404446;22;45183;-71
2023/06/04 11:51:12;;;;;;;;;3.00;2.25;;;;;;;;6375001;22;45176;-70
2023/06/04 11:53:37;;;;;;;;;3.50;3.50;;;;;;;;6403837;22;45282;-70
2023/06/04 11:56:03;;;;;;;;;2.00;2.00;;;;;;;;6404464;22;45101;-71
2023/06/04 11:58:28;;;;;;;;;5.80;5.20;;;;;;;;6404696;22;45095;-71
2023/06/04 12:00:55;;;;;;;;;8.50;7.00;;;;;;;;6404877;22;45164;-71
2023/06/04 12:03:30;;;;;;;;;3.00;3.00;;;;;;;;6368599;22;46130;-71
2023/06/04 12:05:55;;;;;;;;;7.40;5.60;;;;;;;;6372718;22;45185;-71
2023/06/04 12:08:20;;;;;;;;;20.25;18.50;;;;;;;;6372223;22;45310;-71
2023/06/04 12:10:45;;;;;;;;;3.50;2.00;;;;;;;;6368453;22;45506;-73
2023/06/04 12:13:11;;;;;;;;;3.00;2.00;;;;;;;;6371634;22;45540;-74
2023/06/04 12:15:36;;;;;;;;;4.75;3.75;;;;;;;;6371919;22;45910;-74
2023/06/04 12:18:04;;;;;;;;;4.75;4.25;;;;;;;;6371787;22;45224;-72
2023/06/04 12:20:33;;;;;;;;;13.00;11.00;;;;;;;;6369999;22;45365;-72
2023/06/04 12:22:58;;;;;;;;;10.00;8.40;;;;;;;;6369958;22;45941;-74
2023/06/04 12:25:27;;;;;;;;;4.75;4.00;;;;;;;;6370320;22;45490;-73
2023/06/04 12:27:53;;;;;;;;;3.60;3.20;;;;;;;;6371765;22;45325;-73
2023/06/04 12:30:18;;;;;;;;;7.75;7.75;;;;;;;;6370803;22;45311;-72
2023/06/04 12:32:45;;;;;;;;;6.50;6.50;;;;;;;;6371587;22;45272;-73
2023/06/04 12:35:10;;;;;;;;;4.00;4.00;;;;;;;;6372247;22;45288;-72
2023/06/04 12:37:35;;;;;;;;;4.50;2.75;;;;;;;;6372194;22;45305;-72
2023/06/04 12:40:00;;;;;;;;;2.25;1.00;;;;;;;;6372747;22;45281;-74
2023/06/04 12:42:27;;;;;;;;;4.00;3.25;;;;;;;;6371692;22;45386;-73
2023/06/04 12:44:53;;;;;;;;;1.80;1.80;;;;;;;;6372079;22;45293;-73
2023/06/04 12:47:18;;;;;;;;;3.25;3.25;;;;;;;;6371028;22;45188;-72
2023/06/04 12:49:44;;;;;;;;;2.25;1.50;;;;;;;;6371992;22;45091;-74
2023/06/04 12:52:09;;;;;;;;;2.50;2.50;;;;;;;;6371833;22;45088;-74
2023/06/04 12:54:34;;;;;;;;;3.00;0.50;;;;;;;;6370056;22;45695;-73
2023/06/04 12:57:00;;;;;;;;;1.00;1.00;;;;;;;;6372182;22;45222;-73
2023/06/04 12:59:26;;;;;;;;;5.25;3.75;;;;;;;;6372658;22;45207;-72
2023/06/04 13:01:52;;;;;;;;;2.20;2.20;;;;;;;;6372741;22;45192;-72
2023/06/04 13:04:18;;;;;;;;;2.75;2.50;;;;;;;;6404393;22;46134;-72
2023/06/04 13:06:43;;;;;;;;;2.75;2.00;;;;;;;;6404091;22;45352;-72
2023/06/04 13:09:09;;;;;;;;;4.50;2.75;;;;;;;;6375571;22;45193;-72
2023/06/04 13:11:42;;;;;;;;;2.00;2.00;;;;;;;;6403181;22;45723;-72
2023/06/04 13:14:07;;;;;;;;;2.40;2.40;;;;;;;;6404033;22;45218;-72
2023/06/04 13:16:33;;;;;;;;;2.50;1.75;;;;;;;;6374754;22;45313;-72
2023/06/04 13:18:58;;;;;;;;;1.75;1.75;;;;;;;;6404566;22;45144;-72
2023/06/04 13:21:23;;;;;;;;;4.50;4.00;;;;;;;;6402643;22;45277;-72
2023/06/04 13:23:49;;;;;;;;;14.25;11.00;;;;;;;;6398525;22;45321;-72
2023/06/04 13:26:15;;;;;;;;;6.40;5.00;;;;;;;;6373334;22;45265;-73
2023/06/04 13:28:40;;;;;;;;;3.75;3.00;;;;;;;;6403004;22;45562;-73
2023/06/04 13:31:05;;;;;;;;;2.75;2.75;;;;;;;;6402975;22;45276;-73
2023/06/04 13:33:30;;;;;;;;;3.25;1.75;;;;;;;;6402033;22;45257;-72
2023/06/04 13:35:56;;;;;;;;;2.00;2.00;;;;;;;;6403189;22;45302;-75
2023/06/04 13:38:21;;;;;;;;;4.50;3.50;;;;;;;;6402950;22;45175;-75
2023/06/04 13:40:46;;;;;;;;;3.50;3.50;;;;;;;;6402846;22;45335;-72
2023/06/04 13:43:11;;;;;;;;;6.75;6.75;;;;;;;;6401796;22;46841;-72
2023/06/04 13:45:37;;;;;;;;;4.50;4.50;;;;;;;;6373095;22;45292;-74
2023/06/04 13:48:05;;;;;;;;;12.00;12.00;;;;;;;;6373715;22;45364;-74
2023/06/04 13:50:31;;;;;;;;;9.60;9.60;;;;;;;;6401877;22;45431;-73
2023/06/04 13:52:56;;;;;;;;;3.00;3.00;;;;;;;;6372073;22;46698;-74
2023/06/04 13:55:22;;;;;;;;;15.25;14.00;;;;;;;;6402430;22;45513;-73
2023/06/04 13:57:47;;;;;;;;;12.00;10.25;;;;;;;;6402683;22;45206;-74
2023/06/04 14:00:13;;;;;;;;;8.25;8.25;;;;;;;;6402940;22;45233;-74
2023/06/04 14:02:39;;;;;;;;;17.60;14.60;;;;;;;;6398844;22;45343;-74
2023/06/04 14:05:04;;;;;;;;;26.75;25.75;;;;;;;;6402768;22;45304;-74
2023/06/04 14:07:29;;;;;;;;;26.75;26.50;;;;;;;;6369924;22;45342;-76
2023/06/04 14:09:55;;;;;;;;;4.00;4.00;;;;;;;;6403180;22;45575;-74
2023/06/04 14:12:21;;;;;;;;;3.50;1.00;;;;;;;;6402793;22;45267;-74
2023/06/04 14:14:46;;;;;;;;;2.00;2.00;;;;;;;;6373975;22;45289;-74
2023/06/04 14:17:11;;;;;;;;;2.00;2.00;;;;;;;;6373965;22;45285;-74
2023/06/04 14:19:38;;;;;;;;;2.00;2.00;;;;;;;;6403971;22;45267;-74
2023/06/04 14:22:03;;;;;;;;;1.00;1.00;;;;;;;;6374304;22;46792;-74
2023/06/04 14:24:30;;;;;;;;;0.75;0.75;;;;;;;;6403868;22;45178;-75
2023/06/04 14:26:55;;;;;;;;;2.20;2.20;;;;;;;;6402264;22;45282;-75
2023/06/04 14:29:20;;;;;;;;;2.50;2.50;;;;;;;;6403722;22;45176;-75
2023/06/04 14:31:45;;;;;;;;;2.00;2.00;;;;;;;;6373596;22;46815;-74
2023/06/04 14:34:11;;;;;;;;;0.25;0.25;;;;;;;;6403452;22;45188;-75
2023/06/04 14:36:36;;;;;;;;;2.75;1.50;;;;;;;;6403995;22;45254;-75
2023/06/04 14:39:01;;;;;;;;;1.75;1.75;;;;;;;;6403024;22;45388;-75
2023/06/04 14:41:30;;;;;;;;;1.25;1.00;;;;;;;;6403458;22;46367;-75
2023/06/04 14:43:55;;;;;;;;;1.20;1.20;;;;;;;;6403590;22;45288;-77
2023/06/04 14:46:20;;;;;;;;;3.00;2.00;;;;;;;;6402867;22;45291;-75
2023/06/04 14:48:46;;;;;;;;;2.00;1.00;;;;;;;;6403457;22;45181;-77
2023/06/04 14:51:11;;;;;;;;;1.50;1.50;;;;;;;;6403470;22;45262;-75
2023/06/04 14:53:39;;;;;;;;;0.50;0.50;;;;;;;;6401546;22;45280;-75
2023/06/04 14:56:04;;;;;;;;;0.80;0.80;;;;;;;;6403289;22;45187;-75
2023/06/04 14:58:29;;;;;;;;;2.00;1.75;;;;;;;;6374197;22;45330;-75
2023/06/04 15:00:58;;;;;;;;;1.00;1.00;;;;;;;;6403253;22;45887;-74
2023/06/04 15:03:23;;;;;;;;;0.20;0.20;;;;;;;;6373596;22;45325;-75
2023/06/04 15:05:48;;;;;;;;;2.00;2.00;;;;;;;;6403822;22;45309;-76
2023/06/04 15:08:13;;;;;;;;;2.00;0.25;;;;;;;;6403070;22;45151;-73
2023/06/04 15:10:38;;;;;;;;;1.00;0.00;;;;;;;;6403714;22;45411;-73
2023/06/04 15:13:04;;;;;;;;;1.00;1.00;;;;;;;;6403593;22;45323;-73
2023/06/04 15:15:29;;;;;;;;;2.25;2.00;;;;;;;;6405087;22;45202;-72
2023/06/04 15:17:54;;;;;;;;;3.50;2.25;;;;;;;;6403937;22;45466;-73
2023/06/04 15:20:19;;;;;;;;;2.00;2.00;;;;;;;;6404721;22;45217;-73
2023/06/04 15:22:45;;;;;;;;;0.25;0.25;;;;;;;;6404338;22;45289;-72
2023/06/04 15:25:10;;;;;;;;;1.50;1.50;;;;;;;;6404998;22;45264;-73
2023/06/04 15:27:35;;;;;;;;;1.50;1.50;;;;;;;;6404364;22;45430;-73
2023/06/04 15:30:01;;;;;;;;;1.50;1.50;;;;;;;;6405049;22;45424;-72
2023/06/04 15:32:26;;;;;;;;;1.25;1.25;;;;;;;;6373777;22;45342;-71
2023/06/04 15:34:51;;;;;;;;;1.50;1.50;;;;;;;;6404752;22;45261;-71
2023/06/04 15:37:17;;;;;;;;;1.25;1.25;;;;;;;;6375212;22;46689;-72
2023/06/04 15:39:42;;;;;;;;;3.75;1.75;;;;;;;;6404702;22;45314;-71
2023/06/04 15:42:07;;;;;;;;;2.25;1.25;;;;;;;;6403132;22;45321;-72
2023/06/04 15:44:33;;;;;;;;;1.75;1.25;;;;;;;;6376520;22;45471;-70
2023/06/04 15:46:58;;;;;;;;;0.00;0.00;;;;;;;;6403954;22;45146;-71
2023/06/04 15:49:23;;;;;;;;;3.50;2.25;;;;;;;;6404546;22;46317;-71
2023/06/04 15:51:48;;;;;;;;;3.75;1.00;;;;;;;;6375456;22;45208;-71
2023/06/04 15:54:14;;;;;;;;;2.50;2.50;;;;;;;;6375899;22;45100;-71
2023/06/04 15:56:40;;;;;;;;;0.00;0.00;;;;;;;;6404477;22;45447;-71
2023/06/04 15:59:05;;;;;;;;;0.50;0.50;;;;;;;;6404721;22;45770;-71
2023/06/04 16:01:30;;;;;;;;;2.00;2.00;;;;;;;;6404244;22;45137;-71
2023/06/04 16:03:55;;;;;;;;;3.00;1.50;;;;;;;;6374621;22;45311;-71
2023/06/04 16:06:21;;;;;;;;;2.00;2.00;;;;;;;;6404351;22;45085;-71
2023/06/04 16:08:46;;;;;;;;;2.25;2.25;;;;;;;;6404603;22;45139;-71
2023/06/04 16:11:11;;;;;;;;;3.00;2.75;;;;;;;;6374039;22;45628;-71
2023/06/04 16:13:36;;;;;;;;;1.75;1.75;;;;;;;;6404581;22;45280;-71
2023/06/04 16:16:02;;;;;;;;;0.00;0.00;;;;;;;;6404286;22;45159;-71
2023/06/04 16:18:27;;;;;;;;;1.25;1.25;;;;;;;;6405539;22;45900;-71
2023/06/04 16:20:53;;;;;;;;;1.75;1.00;;;;;;;;6375311;22;45183;-71
2023/06/04 16:23:18;;;;;;;;;2.50;1.75;;;;;;;;6404565;22;45159;-71
2023/06/04 16:25:44;;;;;;;;;2.00;2.00;;;;;;;;6404057;22;45248;-71
2023/06/04 16:28:09;;;;;;;;;3.00;3.00;;;;;;;;6402847;22;46315;-71
2023/06/04 16:30:35;;;;;;;;;2.00;2.00;;;;;;;;6404303;22;45319;-71
2023/06/04 16:33:00;;;;;;;;;2.00;2.00;;;;;;;;6404243;22;45625;-71
2023/06/04 16:35:27;;;;;;;;;3.25;2.00;;;;;;;;6404699;22;45643;-71
2023/06/04 16:37:52;;;;;;;;;2.00;2.00;;;;;;;;6374991;22;46401;-72
2023/06/04 16:40:17;;;;;;;;;2.75;2.75;;;;;;;;6404667;22;45147;-72
2023/06/04 16:42:42;;;;;;;;;2.00;2.00;;;;;;;;6404539;22;45431;-71
2023/06/04 16:45:08;;;;;;;;;1.75;1.75;;;;;;;;6404591;22;45209;-72
2023/06/04 16:47:36;;;;;;;;;2.75;2.75;;;;;;;;6374937;22;48277;-71
2023/06/04 16:50:02;;;;;;;;;2.80;2.80;;;;;;;;6403572;22;45304;-71
2023/06/04 16:52:27;;;;;;;;;3.25;3.00;;;;;;;;6404201;22;45160;-70
2023/06/04 16:54:54;;;;;;;;;2.00;2.00;;;;;;;;6404677;22;45217;-71
2023/06/04 16:57:19;;;;;;;;;2.40;2.20;;;;;;;;6403548;22;46348;-71
2023/06/04 16:59:45;;;;;;;;;3.75;2.75;;;;;;;;6404625;22;45230;-71
2023/06/04 17:02:10;;;;;;;;;3.25;3.00;;;;;;;;6403226;22;45346;-71
2023/06/04 17:04:36;;;;;;;;;1.50;1.50;;;;;;;;6376067;22;45447;-71
2023/06/04 17:07:01;;;;;;;;;2.25;2.25;;;;;;;;6404119;22;45163;-72
2023/06/04 17:09:26;;;;;;;;;2.25;2.25;;;;;;;;6404533;22;45306;-71
2023/06/04 17:11:51;;;;;;;;;2.00;2.00;;;;;;;;6375471;22;45183;-71
2023/06/04 17:14:17;;;;;;;;;3.50;3.00;;;;;;;;6402942;22;45285;-71
2023/06/04 17:16:42;;;;;;;;;5.00;2.25;;;;;;;;6374417;22;45395;-72
2023/06/04 17:19:07;;;;;;;;;1.25;1.25;;;;;;;;6404466;22;45203;-71
2023/06/04 17:21:34;;;;;;;;;3.00;3.00;;;;;;;;6404388;22;45484;-71
2023/06/04 17:23:59;;;;;;;;;5.75;2.75;;;;;;;;6404598;22;45151;-71
2023/06/04 17:26:26;;;;;;;;;1.25;1.25;;;;;;;;6403559;22;46245;-71
2023/06/04 17:28:52;;;;;;;;;3.00;3.00;;;;;;;;6404753;22;45244;-71
2023/06/04 17:31:18;;;;;;;;;2.75;2.25;;;;;;;;6404072;22;45140;-71
2023/06/04 17:33:44;;;;;;;;;2.50;2.00;;;;;;;;6403267;22;45327;-71
2023/06/04 17:36:09;;;;;;;;;3.75;1.50;;;;;;;;6403805;22;46488;-72
2023/06/04 17:38:34;;;;;;;;;4.25;2.75;;;;;;;;6404473;22;45199;-71
2023/06/04 17:41:00;;;;;;;;;4.50;2.00;;;;;;;;6404496;22;45188;-71
2023/06/04 17:43:25;;;;;;;;;1.50;1.50;;;;;;;;6404058;22;45298;-73
2023/06/04 17:45:50;;;;;;;;;2.75;2.75;;;;;;;;6404192;22;46308;-71
2023/06/04 17:48:16;;;;;;;;;2.50;2.50;;;;;;;;6403511;22;45245;-71
2023/06/04 17:50:41;;;;;;;;;3.50;3.50;;;;;;;;6375222;22;45261;-71
2023/06/04 17:53:06;;;;;;;;;4.00;4.00;;;;;;;;6403706;22;45226;-73
2023/06/04 17:55:31;;;;;;;;;5.25;3.00;;;;;;;;6404163;22;45325;-70
2023/06/04 17:57:56;;;;;;;;;3.00;3.00;;;;;;;;6403851;22;45586;-70
2023/06/04 18:00:22;;;;;;;;;2.75;1.25;;;;;;;;6404302;22;45205;-71
2023/06/04 18:02:47;;;;;;;;;1.25;1.25;;;;;;;;6403559;22;45385;-71
2023/06/04 18:05:12;;;;;;;;;1.25;1.25;;;;;;;;6375304;22;45694;-71
2023/06/04 18:07:37;;;;;;;;;3.00;3.00;;;;;;;;6404232;22;45205;-70
2023/06/04 18:10:03;;;;;;;;;4.00;3.00;;;;;;;;6404326;22;45264;-70
2023/06/04 18:12:28;;;;;;;;;2.50;2.00;;;;;;;;6373716;22;45385;-70
2023/06/04 18:14:53;;;;;;;;;1.25;1.25;;;;;;;;6404079;22;45169;-71
2023/06/04 18:17:18;;;;;;;;;18.67;14.00;;;;;;;;6403166;22;45312;-70
2023/06/04 18:19:43;;;;;;;;;2.50;2.50;;;;;;;;6404142;22;45201;-71
2023/06/04 18:22:09;;;;;;;;;4.50;4.00;;;;;;;;6403794;22;45417;-70
2023/06/04 18:24:36;;;;;;;;;8.25;6.50;;;;;;;;6403772;22;46122;-71
2023/06/04 18:27:01;;;;;;;;;8.50;7.75;;;;;;;;6374477;22;45295;-70
2023/06/04 18:29:28;;;;;;;;;5.50;4.00;;;;;;;;6404015;22;45196;-70
2023/06/04 18:31:53;;;;;;;;;2.75;2.25;;;;;;;;6403392;22;45440;-70
2023/06/04 18:34:21;;;;;;;;;6.50;6.50;;;;;;;;6403222;22;45328;-71